Time;durP1;ratioP1;P1;durP2;ratioP2;P2;SDS_P1;SDS_P2;PMS_P1;PMS_P2;Temp;Humidity;BMP_temperature;BMP_pressure;BME280_temperature;BME280_humidity;BME280_pressure;Samples;Min_cycle;Max_cycle;Signal;HPM_P1;HPM_P2
2023/02/19 00:02:45;;;;;;;1.93;1.60;;;6.00;99.90;6.20;96949.00;;;;5047108;28;20212;-86
2023/02/19 00:05:35;;;;;;;1.10;1.10;;;5.80;99.90;6.70;96946.00;;;;5048951;28;20219;-86
2023/02/19 00:08:24;;;;;;;1.63;1.20;;;5.80;99.90;6.90;96941.00;;;;5053138;28;20658;-85
2023/02/19 00:11:15;;;;;;;2.73;1.50;;;5.80;99.90;7.30;96952.00;;;;5043388;28;20212;-86
2023/02/19 00:14:05;;;;;;;1.70;1.50;;;5.90;99.90;6.90;96941.00;;;;5056506;28;20228;-84
2023/02/19 00:16:54;;;;;;;2.00;1.00;;;5.90;99.90;7.40;96950.00;;;;5042315;28;20230;-85
2023/02/19 00:19:44;;;;;;;1.30;1.20;;;6.00;99.90;7.30;96946.00;;;;5041210;28;20232;-85
2023/02/19 00:22:33;;;;;;;1.03;0.90;;;6.10;99.90;7.40;96958.00;;;;5041955;28;20227;-85
2023/02/19 00:25:23;;;;;;;1.23;1.13;;;6.10;99.90;7.40;96954.00;;;;5049556;28;20670;-85
2023/02/19 00:28:11;;;;;;;1.30;1.20;;;6.10;99.90;7.40;96960.00;;;;5043751;28;20229;-85
2023/02/19 00:31:06;;;;;;;1.63;1.23;;;6.00;99.90;7.30;96962.00;;;;5040508;28;20550;-85
2023/02/19 00:33:58;;;;;;;2.70;1.90;;;6.00;99.90;7.00;96965.00;;;;5050765;28;20235;-84
2023/02/19 00:36:48;;;;;;;2.77;1.30;;;6.00;99.90;7.10;96963.00;;;;5048926;28;20211;-85
2023/02/19 00:39:36;;;;;;;4.10;1.33;;;5.90;99.90;7.30;96971.00;;;;5048637;28;20709;-85
2023/02/19 00:42:26;;;;;;;1.60;1.20;;;5.90;99.90;6.50;96970.00;;;;5050994;28;20207;-85
2023/02/19 00:45:14;;;;;;;1.30;0.93;;;5.80;99.90;6.80;96974.00;;;;5043029;28;20757;-85
2023/02/19 00:48:03;;;;;;;1.23;0.90;;;5.60;99.90;7.20;96972.00;;;;5037521;28;20231;-85
2023/02/19 00:50:52;;;;;;;1.13;1.03;;;5.70;99.90;7.50;96983.00;;;;5040460;28;20296;-85
2023/02/19 00:53:43;;;;;;;1.10;1.03;;;5.90;99.90;7.00;96978.00;;;;5050344;28;20236;-85
2023/02/19 00:56:32;;;;;;;3.73;0.97;;;5.90;99.90;6.30;96978.00;;;;5050530;28;20200;-85
2023/02/19 00:59:20;;;;;;;0.63;0.63;;;5.80;99.90;6.80;96971.00;;;;5043194;28;20222;-86
2023/02/19 01:02:09;;;;;;;0.50;0.50;;;4.60;99.90;7.00;96970.00;;;;5042780;28;20794;-85
2023/02/19 01:04:58;;;;;;;1.23;1.07;;;5.80;99.90;6.60;96963.00;;;;5045180;28;20208;-86
2023/02/19 01:07:47;;;;;;;1.47;1.00;;;5.70;99.90;6.80;96972.00;;;;5048413;28;20200;-86
2023/02/19 01:10:37;;;;;;;2.30;0.90;;;5.60;99.90;6.60;96955.00;;;;5047806;28;20203;-86
2023/02/19 01:13:27;;;;;;;1.00;0.80;;;5.60;99.90;6.40;96951.00;;;;5042789;28;20682;-84
2023/02/19 01:16:18;;;;;;;4.00;0.93;;;5.50;99.90;6.50;96940.00;;;;5048226;28;20212;-86
2023/02/19 01:19:07;;;;;;;1.03;0.80;;;5.80;99.90;6.60;96947.00;;;;5042742;28;20217;-86
2023/02/19 01:21:56;;;;;;;0.77;0.77;;;4.40;99.90;5.80;96934.00;;;;5036898;28;20207;-86
2023/02/19 01:24:45;;;;;;;0.87;0.70;;;6.20;99.90;6.30;96927.00;;;;5053545;28;20212;-86
2023/02/19 01:27:35;;;;;;;2.73;0.87;;;5.10;99.90;6.60;96928.00;;;;5053381;28;20668;-86
2023/02/19 01:30:24;;;;;;;1.07;0.80;;;5.70;99.90;6.20;96911.00;;;;5045910;28;20210;-86
2023/02/19 01:33:12;;;;;;;0.50;0.50;;;5.30;99.90;5.70;96916.00;;;;5053803;28;20206;-86
2023/02/19 01:36:04;;;;;;;0.70;0.70;;;5.10;99.90;6.30;96910.00;;;;5047983;28;20596;-85
2023/02/19 01:38:53;;;;;;;0.73;0.73;;;5.20;99.90;6.50;96925.00;;;;5052370;28;20247;-86
2023/02/19 01:41:42;;;;;;;1.00;0.80;;;5.20;99.90;6.20;96916.00;;;;5050995;28;20200;-85
2023/02/19 01:45:17;;;;;;;0.80;0.80;;;5.20;99.90;6.00;96916.00;;;;5047594;28;20460;-85
2023/02/19 01:48:11;;;;;;;0.70;0.70;;;5.20;99.90;6.50;96918.00;;;;5042004;28;20622;-86
2023/02/19 01:51:07;;;;;;;0.60;0.60;;;5.20;99.90;6.70;96909.00;;;;5042743;28;20566;-86
2023/02/19 01:53:59;;;;;;;0.90;0.90;;;5.30;99.90;6.60;96912.00;;;;5038565;28;20289;-86
2023/02/19 01:56:50;;;;;;;1.03;0.87;;;5.40;99.90;6.50;96912.00;;;;5053577;28;20227;-85
2023/02/19 01:59:40;;;;;;;0.57;0.57;;;5.40;99.90;6.70;96912.00;;;;5054202;28;20349;-85
2023/02/19 02:02:30;;;;;;;1.30;1.00;;;5.40;99.90;6.60;96918.00;;;;5047974;28;20192;-86
2023/02/19 02:05:28;;;;;;;1.70;0.80;;;5.60;99.90;5.60;96899.00;;;;5052196;28;20221;-87
2023/02/19 02:11:25;;;;;;;1.00;0.90;;;5.10;99.90;6.70;96902.00;;;;5040440;28;20208;-85
2023/02/19 02:14:16;;;;;;;1.27;0.90;;;5.20;99.90;6.30;96895.00;;;;5052778;28;20217;-86
2023/02/19 02:17:15;;;;;;;0.83;0.63;;;5.20;99.90;6.30;96900.00;;;;5044326;28;20721;-85
2023/02/19 02:20:30;;;;;;;0.80;0.80;;;5.20;99.90;6.40;96902.00;;;;5050155;28;20200;-86
2023/02/19 02:23:33;;;;;;;1.33;0.80;;;5.20;99.90;6.40;96889.00;;;;5045507;28;20685;-86
2023/02/19 02:26:41;;;;;;;1.57;1.27;;;5.20;99.90;6.10;96886.00;;;;5050533;28;20208;-85
2023/02/19 02:30:09;;;;;;;2.10;1.07;;;5.30;99.90;5.60;96894.00;;;;5052286;28;20228;-84
2023/02/19 02:33:07;;;;;;;0.70;0.70;;;4.90;99.90;5.80;96887.00;;;;5052859;28;20705;-85
2023/02/19 02:36:02;;;;;;;3.67;1.33;;;4.80;99.90;6.10;96896.00;;;;5050840;28;20235;-84
2023/02/19 02:38:52;;;;;;;0.60;0.60;;;4.90;99.90;6.00;96885.00;;;;5049880;28;20626;-85
2023/02/19 02:41:44;;;;;;;1.03;0.93;;;4.90;99.90;6.00;96876.00;;;;5049121;28;20192;-85
2023/02/19 02:44:35;;;;;;;1.27;0.77;;;4.80;99.90;5.90;96866.00;;;;5050306;28;20205;-85
2023/02/19 02:50:38;;;;;;;0.67;0.67;;;4.70;99.90;5.20;96872.00;;;;5050337;28;20357;-85
2023/02/19 02:56:45;;;;;;;1.97;0.73;;;5.50;99.90;6.00;96854.00;;;;5053534;28;20200;-86
2023/02/19 02:59:38;;;;;;;2.13;1.10;;;4.70;99.90;5.70;96867.00;;;;5053504;28;20712;-86
2023/02/19 03:02:30;;;;;;;0.83;0.70;;;4.70;99.90;5.10;96869.00;;;;5046625;28;20205;-84
2023/02/19 03:08:35;;;;;;;1.43;1.00;;;6.10;99.90;6.30;96868.00;;;;5048743;28;20473;-85
2023/02/19 03:21:04;;;;;;;1.10;0.97;;;4.80;99.90;5.20;96861.00;;;;5043095;28;20205;-86
2023/02/19 03:27:04;;;;;;;4.37;1.27;;;4.60;99.90;5.90;96860.00;;;;5048860;28;20208;-86
2023/02/19 03:29:57;;;;;;;1.10;1.00;;;4.60;99.90;5.40;96859.00;;;;5041323;28;20219;-85
2023/02/19 03:32:53;;;;;;;0.83;0.83;;;4.80;99.90;5.30;96868.00;;;;5051043;28;20216;-85
2023/02/19 03:35:47;;;;;;;0.80;0.80;;;4.40;99.90;5.30;96853.00;;;;5047201;28;20631;-85
2023/02/19 03:38:41;;;;;;;1.33;1.10;;;4.50;99.90;5.80;96850.00;;;;5046381;28;20231;-85
2023/02/19 03:41:36;;;;;;;1.27;1.17;;;4.60;99.90;5.70;96861.00;;;;5049679;28;20208;-85
2023/02/19 03:44:36;;;;;;;0.93;0.87;;;4.50;99.90;5.00;96855.00;;;;5050207;28;20207;-87
2023/02/19 03:47:29;;;;;;;3.17;1.10;;;4.40;99.90;5.20;96848.00;;;;5044011;28;21608;-85
2023/02/19 03:50:22;;;;;;;0.70;0.70;;;4.50;99.90;5.90;96857.00;;;;5040362;28;20203;-85
2023/02/19 03:53:19;;;;;;;2.67;1.07;;;4.50;99.90;5.80;96857.00;;;;5042867;28;20838;-85
2023/02/19 03:56:15;;;;;;;2.67;0.87;;;4.60;99.90;5.50;96841.00;;;;5051750;28;20251;-85
2023/02/19 03:59:11;;;;;;;3.90;1.40;;;4.70;99.90;5.30;96850.00;;;;5048406;28;20239;-85
2023/02/19 04:02:07;;;;;;;1.13;0.90;;;4.50;99.90;5.50;96850.00;;;;5050856;28;20442;-86
2023/02/19 04:05:03;;;;;;;1.27;1.13;;;4.40;99.90;5.30;96837.00;;;;5047292;28;20447;-85
2023/02/19 04:07:59;;;;;;;0.83;0.83;;;4.30;99.90;5.90;96837.00;;;;5040451;28;20446;-85
2023/02/19 04:10:50;;;;;;;0.70;0.70;;;4.50;99.90;5.80;96849.00;;;;5047543;28;20443;-85
2023/02/19 04:13:45;;;;;;;0.80;0.80;;;4.60;99.90;5.40;96840.00;;;;5049122;28;20211;-85
2023/02/19 04:16:37;;;;;;;1.23;0.80;;;4.50;99.90;5.00;96830.00;;;;5041509;28;20479;-86
2023/02/19 04:19:29;;;;;;;0.93;0.93;;;4.70;99.90;5.80;96834.00;;;;5038565;28;21431;-85
2023/02/19 04:22:18;;;;;;;1.90;0.83;;;4.40;99.90;5.80;96842.00;;;;5035709;28;20205;-86
2023/02/19 04:25:09;;;;;;;2.20;0.90;;;4.50;99.90;5.30;96836.00;;;;5046256;28;20455;-87
2023/02/19 04:27:58;;;;;;;0.90;0.90;;;4.50;99.90;5.80;96847.00;;;;5047650;28;20281;-86
2023/02/19 04:30:47;;;;;;;0.73;0.50;;;4.50;99.90;6.10;96839.00;;;;5044000;28;20211;-85
2023/02/19 04:33:36;;;;;;;1.53;0.90;;;4.60;99.90;5.90;96855.00;;;;5051786;28;20689;-85
2023/02/19 04:36:25;;;;;;;1.07;0.80;;;4.70;99.90;5.80;96857.00;;;;5049394;28;20824;-85
2023/02/19 04:39:13;;;;;;;1.70;1.53;;;4.70;99.90;5.90;96846.00;;;;5047946;28;20477;-85
2023/02/19 04:42:04;;;;;;;1.43;0.97;;;4.70;99.90;5.50;96846.00;;;;5047514;28;20204;-85
2023/02/19 04:44:53;;;;;;;2.40;1.17;;;4.50;99.90;5.70;96844.00;;;;5046622;28;20248;-85
2023/02/19 04:47:42;;;;;;;1.80;0.93;;;4.50;99.90;5.60;96838.00;;;;5035373;28;20569;-85
2023/02/19 04:50:30;;;;;;;1.20;0.80;;;4.50;99.90;5.00;96844.00;;;;5037684;28;20197;-85
2023/02/19 04:53:19;;;;;;;1.00;1.00;;;4.40;99.90;5.20;96832.00;;;;5043956;28;20207;-85
2023/02/19 04:56:10;;;;;;;3.40;1.07;;;5.10;99.90;5.40;96826.00;;;;5047747;28;20234;-85
2023/02/19 04:59:00;;;;;;;1.47;1.03;;;4.20;99.90;5.50;96835.00;;;;5052618;28;20242;-85
2023/02/19 05:01:49;;;;;;;0.87;0.87;;;4.30;99.90;5.60;96843.00;;;;5045232;28;20246;-86
2023/02/19 05:04:38;;;;;;;1.57;0.80;;;4.40;99.90;5.70;96843.00;;;;5053527;28;20210;-84
2023/02/19 05:07:26;;;;;;;0.80;0.80;;;4.50;99.90;5.50;96848.00;;;;5053263;28;20205;-86
2023/02/19 05:10:15;;;;;;;1.00;1.00;;;4.50;99.90;5.50;96834.00;;;;5052946;28;21100;-85
2023/02/19 05:13:04;;;;;;;0.70;0.70;;;4.40;99.90;5.70;96834.00;;;;5051397;28;20447;-85
2023/02/19 05:15:59;;;;;;;1.20;1.10;;;4.90;99.90;5.20;96835.00;;;;5049043;28;20269;-85
2023/02/19 05:18:48;;;;;;;4.53;1.23;;;4.90;99.90;5.10;96825.00;;;;5045279;28;20223;-86
2023/02/19 05:21:38;;;;;;;1.07;0.80;;;4.30;99.90;5.00;96806.00;;;;5043704;28;20213;-84
2023/02/19 05:24:28;;;;;;;0.67;0.67;;;4.20;99.90;5.60;96793.00;;;;5046998;28;20442;-85
2023/02/19 05:27:17;;;;;;;1.20;1.10;;;4.30;99.90;5.90;96794.00;;;;5051655;28;20485;-85
2023/02/19 05:30:07;;;;;;;2.23;0.93;;;4.40;99.90;5.60;96812.00;;;;5053203;28;20696;-85
2023/02/19 05:32:57;;;;;;;1.13;0.93;;;4.40;99.90;5.60;96798.00;;;;5056688;28;20213;-86
2023/02/19 05:35:48;;;;;;;1.00;0.90;;;4.40;99.90;5.90;96811.00;;;;5050174;28;20232;-85
2023/02/19 05:38:37;;;;;;;0.90;0.90;;;4.50;99.90;5.80;96803.00;;;;5050310;28;20231;-85
2023/02/19 05:41:28;;;;;;;0.67;0.60;;;4.50;99.90;5.60;96823.00;;;;5054111;28;20224;-85
2023/02/19 05:44:17;;;;;;;1.03;1.00;;;4.50;99.90;5.50;96827.00;;;;5052111;28;20294;-85
2023/02/19 05:47:06;;;;;;;1.20;1.10;;;4.50;99.90;5.30;96819.00;;;;5045806;28;20701;-85
2023/02/19 05:49:56;;;;;;;1.23;0.90;;;4.40;99.90;5.80;96841.00;;;;5042884;28;20217;-84
2023/02/19 05:52:44;;;;;;;1.20;1.00;;;4.40;99.90;5.80;96840.00;;;;5048950;28;20801;-84
2023/02/19 05:55:36;;;;;;;1.20;1.10;;;4.50;99.90;5.50;96828.00;;;;5047961;28;20439;-85
2023/02/19 05:58:25;;;;;;;1.70;1.07;;;4.50;99.90;5.80;96819.00;;;;5053750;28;20540;-85
2023/02/19 06:01:16;;;;;;;3.30;1.20;;;4.50;99.90;5.90;96821.00;;;;5057590;28;20212;-85
2023/02/19 06:04:05;;;;;;;1.20;1.10;;;4.50;99.90;5.90;96812.00;;;;5048135;28;20193;-85
2023/02/19 06:06:55;;;;;;;1.63;1.10;;;4.50;99.90;5.70;96822.00;;;;5051460;28;20457;-85
2023/02/19 06:09:44;;;;;;;1.27;0.90;;;5.40;99.90;6.00;96827.00;;;;5048238;28;23060;-85
2023/02/19 06:12:33;;;;;;;1.43;1.20;;;4.60;99.90;5.70;96841.00;;;;5051223;28;20697;-85
2023/02/19 06:15:22;;;;;;;1.70;0.87;;;4.60;99.90;5.50;96838.00;;;;5051232;28;20506;-85
2023/02/19 06:18:11;;;;;;;1.03;1.00;;;4.60;99.90;5.70;96843.00;;;;5050544;28;20724;-85
2023/02/19 06:21:01;;;;;;;1.80;0.80;;;4.50;99.90;5.90;96848.00;;;;5041816;28;20538;-85
2023/02/19 06:23:51;;;;;;;1.43;1.03;;;5.00;99.90;5.60;96840.00;;;;5042341;28;20212;-85
2023/02/19 06:26:40;;;;;;;0.73;0.73;;;4.50;99.90;6.00;96832.00;;;;5056396;28;20344;-85
2023/02/19 06:29:31;;;;;;;1.33;1.10;;;4.60;99.90;6.10;96846.00;;;;5051328;28;20227;-85
2023/02/19 06:32:20;;;;;;;3.43;2.77;;;4.60;99.90;6.00;96829.00;;;;5053328;28;20199;-85
2023/02/19 06:35:09;;;;;;;2.80;2.50;;;4.70;99.90;6.10;96835.00;;;;5042909;28;20204;-86
2023/02/19 06:37:58;;;;;;;2.83;2.13;;;4.70;99.90;5.90;96820.00;;;;5048244;28;20227;-85
2023/02/19 06:40:48;;;;;;;3.40;2.73;;;4.70;99.90;6.10;96828.00;;;;5048338;28;20217;-85
2023/02/19 06:43:37;;;;;;;5.37;3.33;;;4.70;99.90;6.10;96836.00;;;;5049577;28;20279;-85
2023/02/19 06:46:26;;;;;;;2.70;1.80;;;4.70;99.90;6.20;96838.00;;;;5053599;28;20220;-86
2023/02/19 06:49:15;;;;;;;1.33;1.23;;;4.80;99.90;6.20;96840.00;;;;5051552;28;20228;-85
2023/02/19 06:52:04;;;;;;;2.47;2.27;;;4.80;99.90;5.70;96850.00;;;;5052074;28;20201;-86
2023/02/19 06:54:54;;;;;;;2.43;2.13;;;4.70;99.90;6.20;96843.00;;;;5045970;28;20210;-86
2023/02/19 06:57:44;;;;;;;2.53;2.10;;;4.80;99.90;6.40;96850.00;;;;5052795;28;20225;-85
2023/02/19 07:00:32;;;;;;;2.07;1.80;;;4.90;99.90;6.10;96854.00;;;;5050243;28;20200;-85
2023/02/19 07:03:22;;;;;;;11.47;7.90;;;4.90;99.90;6.30;96853.00;;;;5047152;28;20795;-85
2023/02/19 07:06:11;;;;;;;3.33;3.00;;;4.90;99.90;6.40;96840.00;;;;5055510;28;20203;-85
2023/02/19 07:08:59;;;;;;;4.30;3.03;;;4.90;99.90;6.60;96851.00;;;;5068934;28;20220;-86
2023/02/19 07:11:48;;;;;;;4.77;4.10;;;5.00;99.90;6.60;96870.00;;;;5063677;28;20277;-85
2023/02/19 07:14:38;;;;;;;3.47;2.80;;;5.10;99.90;6.60;96853.00;;;;5072461;28;20204;-86
2023/02/19 07:17:27;;;;;;;3.13;2.83;;;5.10;99.90;6.50;96875.00;;;;5078236;28;20258;-86
2023/02/19 07:20:16;;;;;;;3.40;2.27;;;5.10;99.90;6.40;96858.00;;;;5060149;28;20200;-86
2023/02/19 07:23:04;;;;;;;3.40;2.20;;;5.10;99.90;5.90;96876.00;;;;5068301;28;20619;-86
2023/02/19 07:25:58;;;;;;;2.70;2.07;;;5.00;99.90;6.30;96855.00;;;;5064695;28;20188;-86
2023/02/19 07:28:50;;;;;;;2.87;2.20;;;5.00;99.90;6.40;96861.00;;;;5060832;28;20760;-86
2023/02/19 07:31:40;;;;;;;3.87;2.47;;;5.00;99.90;6.60;96848.00;;;;5058801;28;20195;-86
2023/02/19 07:34:29;;;;;;;2.23;2.03;;;5.10;99.90;6.50;96839.00;;;;5067506;28;20223;-85
2023/02/19 07:37:18;;;;;;;6.97;2.47;;;5.40;99.90;6.10;96837.00;;;;5063369;28;20615;-84
2023/02/19 07:40:08;;;;;;;2.60;2.40;;;5.10;99.90;6.70;96844.00;;;;5051641;28;20565;-85
2023/02/19 07:42:59;;;;;;;4.93;2.87;;;5.20;99.90;7.10;96855.00;;;;5052812;28;20207;-85
2023/02/19 07:45:48;;;;;;;1.77;1.67;;;5.30;99.90;7.20;96850.00;;;;5069352;28;20199;-86
2023/02/19 07:48:39;;;;;;;2.57;1.50;;;5.50;99.90;6.70;96862.00;;;;5072263;28;20221;-85
2023/02/19 07:51:28;;;;;;;3.20;1.77;;;5.60;99.90;6.40;96851.00;;;;5060088;28;20235;-86
2023/02/19 07:54:16;;;;;;;2.60;2.00;;;5.50;99.90;7.10;96850.00;;;;5055165;28;20603;-85
2023/02/19 07:57:07;;;;;;;3.97;2.03;;;5.60;99.90;7.50;96852.00;;;;5056649;28;20219;-85
2023/02/19 07:59:57;;;;;;;2.83;1.93;;;5.70;99.90;7.60;96859.00;;;;5063523;28;20243;-86
2023/02/19 08:03:02;;;;;;;2.60;1.93;;;5.90;99.90;7.90;96851.00;;;;5061441;28;20204;-86
2023/02/19 08:05:53;;;;;;;2.10;1.90;;;6.00;99.90;8.00;96836.00;;;;5050744;28;20264;-85
2023/02/19 08:08:42;;;;;;;2.77;1.80;;;6.10;99.90;8.30;96856.00;;;;5048042;28;20224;-86
2023/02/19 08:14:38;;;;;;;4.50;3.53;;;6.40;99.90;8.30;96875.00;;;;5063011;28;20191;-86
2023/02/19 08:17:29;;;;;;;4.80;4.03;;;6.50;99.90;8.20;96865.00;;;;5067313;28;20696;-86
2023/02/19 08:20:17;;;;;;;6.20;3.80;;;6.60;99.90;8.40;96864.00;;;;5066596;28;20225;-86
2023/02/19 08:23:08;;;;;;;5.20;4.33;;;6.60;99.90;8.30;96865.00;;;;5067187;28;20212;-86
2023/02/19 08:25:59;;;;;;;4.00;3.70;;;6.70;99.90;8.30;96871.00;;;;5055992;28;20213;-86
2023/02/19 08:28:49;;;;;;;4.07;3.47;;;6.70;99.90;8.40;96855.00;;;;5080901;28;20230;-86
2023/02/19 08:31:38;;;;;;;3.57;3.00;;;6.80;99.90;8.40;96847.00;;;;5061697;28;20200;-86
2023/02/19 08:34:27;;;;;;;3.13;2.67;;;6.80;99.90;7.80;96861.00;;;;5064804;28;20305;-86
2023/02/19 08:37:16;;;;;;;4.60;3.17;;;6.70;99.90;8.30;96853.00;;;;5057221;28;20653;-86
2023/02/19 08:40:06;;;;;;;4.67;3.17;;;6.70;99.90;8.40;96842.00;;;;5053733;28;20678;-86
2023/02/19 08:42:55;;;;;;;4.30;3.23;;;6.80;99.90;8.40;96844.00;;;;5060225;28;20199;-86
2023/02/19 08:45:47;;;;;;;3.13;2.77;;;6.80;99.90;8.90;96839.00;;;;5065804;28;20204;-86
2023/02/19 08:48:36;;;;;;;4.10;2.97;;;7.00;99.90;9.10;96841.00;;;;5046843;28;20228;-86
2023/02/19 08:51:25;;;;;;;6.27;4.23;;;7.20;99.90;8.70;96839.00;;;;5060452;28;20684;-86
2023/02/19 08:54:14;;;;;;;4.97;2.67;;;7.30;99.90;8.70;96831.00;;;;5066154;28;20213;-85
2023/02/19 08:57:04;;;;;;;5.43;3.07;;;7.40;99.90;8.70;96835.00;;;;5057969;28;20557;-86
2023/02/19 08:59:53;;;;;;;3.40;2.50;;;7.50;99.90;9.70;96853.00;;;;5065335;28;20229;-87
2023/02/19 09:02:42;;;;;;;2.20;1.50;;;7.70;99.90;9.80;96837.00;;;;5080348;28;20196;-87
2023/02/19 09:05:30;;;;;;;1.93;1.40;;;7.90;99.90;10.10;96838.00;;;;5045646;28;20204;-87
2023/02/19 09:08:19;;;;;;;4.53;2.80;;;8.30;99.90;10.60;96826.00;;;;5071621;28;20701;-87
2023/02/19 09:11:08;;;;;;;4.33;3.53;;;8.60;99.90;11.10;96843.00;;;;5050867;28;20204;-86
2023/02/19 09:13:58;;;;;;;5.80;3.50;;;8.90;99.90;11.60;96855.00;;;;5051523;28;20261;-87
2023/02/19 09:16:47;;;;;;;5.50;3.93;;;9.30;99.90;11.60;96856.00;;;;5048242;28;20210;-87
2023/02/19 09:19:36;;;;;;;7.13;4.47;;;9.60;99.90;11.30;96833.00;;;;5047605;28;20704;-87
2023/02/19 09:22:25;;;;;;;4.60;3.77;;;8.60;99.90;11.80;96849.00;;;;5061577;28;20208;-86
2023/02/19 09:25:14;;;;;;;3.97;2.70;;;9.90;99.90;11.20;96844.00;;;;5049475;28;20201;-87
2023/02/19 09:28:03;;;;;;;7.67;2.80;;;9.90;99.90;11.40;96828.00;;;;5062096;28;20706;-87
2023/02/19 09:30:53;;;;;;;6.43;2.80;;;9.80;99.90;11.90;96824.00;;;;5071094;28;20210;-87
2023/02/19 09:33:47;;;;;;;5.40;2.97;;;10.00;99.90;11.80;96826.00;;;;5072514;28;20583;-87
2023/02/19 09:36:35;;;;;;;4.67;3.10;;;10.10;99.90;11.90;96833.00;;;;5068709;28;20263;-87
2023/02/19 09:39:24;;;;;;;5.77;3.70;;;10.20;99.90;11.50;96841.00;;;;5064212;28;20228;-88
2023/02/19 09:42:17;;;;;;;10.27;9.47;;;10.20;99.90;11.90;96815.00;;;;5053347;28;20204;-87
2023/02/19 09:45:07;;;;;;;7.53;4.90;;;10.20;99.90;12.70;96835.00;;;;5051609;28;20705;-87
2023/02/19 09:47:58;;;;;;;7.63;3.80;;;10.50;99.90;12.40;96806.00;;;;5060358;28;20226;-87
2023/02/19 09:50:49;;;;;;;3.47;3.10;;;10.60;99.90;12.70;96810.00;;;;5066513;28;20199;-87
2023/02/19 09:53:44;;;;;;;6.13;3.50;;;10.80;99.90;12.70;96825.00;;;;5063018;28;20200;-88
2023/02/19 09:56:33;;;;;;;4.17;3.50;;;11.00;99.90;12.70;96822.00;;;;5072235;28;20223;-88
2023/02/19 09:59:26;;;;;;;3.57;2.73;;;11.10;99.90;12.80;96803.00;;;;5061781;28;20274;-88
2023/02/19 10:02:18;;;;;;;3.17;2.13;;;11.10;99.90;13.70;96808.00;;;;5071844;28;20207;-88
2023/02/19 10:05:14;;;;;;;8.03;2.87;;;11.40;99.90;13.90;96812.00;;;;5064994;28;20578;-87
2023/02/19 10:08:09;;;;;;;5.27;2.93;;;11.60;99.90;13.60;96810.00;;;;5073075;28;20236;-87
2023/02/19 10:10:59;;;;;;;3.33;2.60;;;11.80;99.90;13.80;96808.00;;;;5050398;28;20553;-87
2023/02/19 10:14:03;;;;;;;3.03;1.80;;;12.00;99.90;13.80;96810.00;;;;5057637;28;20216;-89
2023/02/19 10:16:53;;;;;;;2.87;2.53;;;12.10;99.90;13.70;96833.00;;;;5071711;28;20557;-87
2023/02/19 10:19:42;;;;;;;3.67;1.90;;;12.10;99.90;14.00;96811.00;;;;5062412;28;20231;-87
2023/02/19 10:22:36;;;;;;;1.40;1.10;;;12.20;99.90;14.50;96823.00;;;;5076081;28;20244;-87
2023/02/19 10:25:25;;;;;;;1.47;1.37;;;12.40;99.90;14.30;96836.00;;;;5072990;28;20207;-90
2023/02/19 10:28:18;;;;;;;1.63;1.53;;;12.50;99.90;14.50;96826.00;;;;5059526;28;20216;-87
2023/02/19 10:31:17;;;;;;;1.37;1.27;;;12.60;99.90;15.10;96805.00;;;;5068595;28;20196;-87
2023/02/19 10:34:20;;;;;;;1.70;1.27;;;12.80;99.90;15.60;96802.00;;;;5070905;28;20201;-87
2023/02/19 10:37:14;;;;;;;2.13;1.70;;;13.30;99.90;16.00;96802.00;;;;5060334;28;20230;-89
2023/02/19 10:40:05;;;;;;;2.40;1.00;;;13.70;99.90;17.20;96831.00;;;;5062312;28;20293;-87
2023/02/19 10:42:57;;;;;;;1.67;1.10;;;14.20;96.70;18.20;96803.00;;;;5067774;28;20329;-87
2023/02/19 10:45:49;;;;;;;0.93;0.50;;;14.80;97.10;18.90;96803.00;;;;5074136;28;20197;-87
2023/02/19 10:48:41;;;;;;;0.83;0.73;;;;;19.50;96808.00;;;;5050666;28;20235;-88
2023/02/19 10:51:36;;;;;;;0.53;0.47;;;16.30;90.40;20.00;96848.00;;;;5061728;28;20200;-88
2023/02/19 10:57:49;;;;;;;0.20;0.20;;;17.70;79.90;20.00;96804.00;;;;5060600;28;20216;-86
2023/02/19 11:00:38;;;;;;;0.20;0.20;;;18.10;74.60;19.50;96807.00;;;;5060295;28;20223;-87
2023/02/19 11:03:27;;;;;;;0.20;0.20;;;;;18.20;96811.00;;;;5068599;28;20201;-87
2023/02/19 11:06:19;;;;;;;0.27;0.27;;;18.00;63.00;18.00;96775.00;;;;5060771;28;20217;-90
2023/02/19 11:09:25;;;;;;;0.20;0.20;;;17.80;64.40;17.10;96777.00;;;;5067872;28;20228;-88
2023/02/19 11:12:24;;;;;;;2.50;0.20;;;17.40;63.30;17.10;96772.00;;;;5076064;28;20203;-91
2023/02/19 11:15:23;;;;;;;0.20;0.20;;;17.20;63.30;17.50;96775.00;;;;5055016;28;20208;-90
2023/02/19 11:18:21;;;;;;;0.20;0.20;;;17.10;64.50;17.60;96780.00;;;;5061684;28;20736;-88
2023/02/19 11:21:31;;;;;;;0.30;0.20;;;17.00;63.00;18.30;96787.00;;;;5070113;28;20207;-90
2023/02/19 11:24:29;;;;;;;0.67;0.30;;;17.30;62.00;18.30;96788.00;;;;5058395;28;20679;-91
2023/02/19 11:27:21;;;;;;;0.47;0.40;;;17.60;61.50;18.20;96774.00;;;;5071432;28;20203;-92
2023/02/19 11:30:38;;;;;;;0.20;0.10;;;17.70;60.90;19.10;96782.00;;;;5051923;28;20239;-87
2023/02/19 11:33:27;;;;;;;0.30;0.30;;;17.60;60.70;19.10;96788.00;;;;5070679;28;20196;-88
2023/02/19 11:36:27;;;;;;;1.03;0.27;;;17.70;59.60;20.10;96782.00;;;;5068651;28;20748;-88
2023/02/19 11:39:25;;;;;;;0.20;0.10;;;18.20;59.40;19.50;96768.00;;;;5061467;28;20235;-87
2023/02/19 11:42:41;;;;;;;0.40;0.33;;;18.40;57.90;21.10;96775.00;;;;5057811;28;20208;-88
2023/02/19 11:45:40;;;;;;;0.77;0.40;;;18.70;58.70;20.10;96773.00;;;;5058059;28;20218;-91
2023/02/19 11:48:48;;;;;;;0.40;0.30;;;19.00;56.70;18.50;96777.00;;;;5065728;28;20232;-92
2023/02/19 11:51:53;;;;;;;0.60;0.20;;;18.50;56.20;21.30;96785.00;;;;5070674;28;20200;-86
2023/02/19 11:54:51;;;;;;;0.20;0.10;;;18.80;57.60;19.20;96783.00;;;;5082902;28;20199;-90
2023/02/19 11:57:44;;;;;;;2.43;0.40;;;18.90;55.30;21.10;96769.00;;;;5059753;28;20712;-88
2023/02/19 12:00:51;;;;;;;0.30;0.30;;;18.90;56.70;21.20;96749.00;;;;5064102;28;20236;-90
2023/02/19 12:04:05;;;;;;;0.40;0.20;;;19.40;56.70;22.60;96760.00;;;;5059645;28;20685;-91
2023/02/19 12:07:03;;;;;;;0.20;0.20;;;19.80;56.80;22.40;96781.00;;;;5066059;28;20215;-91
2023/02/19 12:10:06;;;;;;;0.20;0.20;;;20.50;53.80;21.70;96825.00;;;;5067525;28;20223;-90
2023/02/19 12:13:06;;;;;;;5.97;3.47;;;20.40;53.30;21.90;96816.00;;;;5057741;28;20293;-89
2023/02/19 12:16:19;;;;;;;0.40;0.40;;;20.20;53.80;19.70;96848.00;;;;5049465;28;20230;-88
2023/02/19 12:19:41;;;;;;;2.93;1.80;;;19.50;51.20;19.40;96833.00;;;;5061749;28;20277;-90
2023/02/19 12:22:32;;;;;;;0.30;0.30;;;18.90;51.70;20.00;96792.00;;;;5070572;28;20613;-88
2023/02/19 12:25:46;;;;;;;0.37;0.37;;;18.70;52.40;18.90;96842.00;;;;5049868;28;20200;-91
2023/02/19 12:29:22;;;;;;;1.00;0.43;;;18.40;52.00;18.90;96865.00;;;;5054279;28;20612;-89
2023/02/19 12:32:44;;;;;;;0.27;0.27;;;17.90;53.30;19.00;96854.00;;;;5052055;28;20676;-88
2023/02/19 12:35:49;;;;;;;0.20;0.20;;;17.60;55.00;20.30;96833.00;;;;5080027;28;20192;-88
2023/02/19 12:38:45;;;;;;;1.20;1.10;;;17.80;55.20;21.10;96800.00;;;;5048574;28;20247;-88
2023/02/19 12:41:42;;;;;;;0.20;0.20;;;18.20;56.90;20.80;96862.00;;;;5049345;28;20708;-88
2023/02/19 12:44:41;;;;;;;0.30;0.23;;;18.50;57.40;21.80;96868.00;;;;5059384;28;20678;-88
2023/02/19 12:47:42;;;;;;;0.40;0.40;;;19.00;57.40;21.20;96869.00;;;;5069025;28;20203;-89
2023/02/19 12:50:32;;;;;;;2.77;0.20;;;19.30;57.20;20.00;96878.00;;;;5054677;28;20200;-86
2023/02/19 12:53:35;;;;;;;1.23;0.20;;;19.00;57.30;19.50;96872.00;;;;5061589;28;20196;-87
2023/02/19 12:56:30;;;;;;;0.87;0.30;;;18.50;58.10;19.30;96807.00;;;;5065712;28;20673;-90
2023/02/19 12:59:25;;;;;;;0.50;0.30;;;18.30;58.90;19.60;96883.00;;;;5059440;28;20475;-90
2023/02/19 13:02:18;;;;;;;0.20;0.10;;;18.20;59.20;19.00;96848.00;;;;5052427;28;20209;-88
2023/02/19 13:05:19;;;;;;;0.30;0.30;;;17.90;59.30;19.00;96873.00;;;;5047969;28;20200;-87
2023/02/19 13:08:15;;;;;;;0.30;0.30;;;17.80;60.00;19.40;96868.00;;;;5065710;28;20648;-89
2023/02/19 13:11:10;;;;;;;0.23;0.20;;;17.60;60.30;19.90;96873.00;;;;5070421;28;20203;-88
2023/02/19 13:14:05;;;;;;;0.63;0.23;;;17.80;60.60;19.40;96880.00;;;;5076134;28;20203;-88
2023/02/19 13:17:01;;;;;;;0.50;0.27;;;17.70;61.50;19.40;96894.00;;;;5053597;28;20235;-87
2023/02/19 13:19:57;;;;;;;1.23;0.20;;;17.60;61.20;19.50;96910.00;;;;5070772;28;20716;-87
2023/02/19 13:26:25;;;;;;;0.27;0.20;;;17.30;61.40;18.50;96922.00;;;;5070659;28;20221;-86
2023/02/19 13:29:33;;;;;;;0.27;0.27;;;17.00;62.30;18.00;96927.00;;;;5071563;28;20217;-86
2023/02/19 13:32:45;;;;;;;0.20;0.20;;;16.70;62.90;17.10;96950.00;;;;5069485;28;20201;-86
2023/02/19 13:36:07;;;;;;;0.37;0.27;;;16.30;64.00;17.30;96940.00;;;;5063430;28;20236;-86
2023/02/19 13:38:59;;;;;;;0.20;0.20;;;15.90;65.70;17.40;96934.00;;;;5054073;28;20224;-87